Terminal Aerodrome Forecast
Issued by NWS Denver/Boulder, CO

Home | Current Version | Previous Version | Text Only | Print | Product List | Glossary On
Versions: 1 2 3 4 5 6 7 8 9 10 11 12 13 14 15 16 17 18 19 20 21 22 23 24 25 26 27 28 29 30 31 32 33 34 35 36 37
000
FTUS45 KBOU 202101 AAB
TAFDEN
TAF AMD
KDEN 202101Z 2021/2124 05006KT P6SM FEW100 SCT200
     FM202300 07007KT P6SM VCTS SCT100CB
      TEMPO 2023/2101 VRB20G30KT
     FM210100 11008KT P6SM SCT100 BKN200
     FM210300 20010KT P6SM SCT100 BKN200
     FM211400 25007KT P6SM SCT100 BKN200
     FM211600 35007KT P6SM SCT100 BKN200
     FM211900 06012KT P6SM SCT100 BKN200=

USA.gov is the U.S. government's official web portal to all federal, state and local government web resources and services.